createdAt,value
2018-04-30T00:04:22.295Z,14.80
2018-04-30T00:09:25.397Z,14.90
2018-04-30T00:14:28.452Z,14.80
2018-04-30T00:19:33.040Z,14.90
2018-04-30T00:24:36.510Z,14.80
2018-04-30T00:29:41.116Z,14.80
2018-04-30T00:34:44.193Z,14.70
2018-04-30T00:39:49.331Z,14.70
2018-04-30T00:44:53.164Z,14.70
2018-04-30T00:49:57.011Z,14.60
2018-04-30T01:00:04.917Z,14.60
2018-04-30T01:05:08.402Z,14.60
2018-04-30T01:10:12.257Z,14.60
2018-04-30T01:15:16.117Z,14.60
2018-04-30T01:20:19.977Z,14.50
2018-04-30T01:25:23.822Z,14.50
2018-04-30T01:30:27.702Z,14.50
2018-04-30T01:35:31.196Z,14.50
2018-04-30T01:40:35.054Z,14.40
2018-04-30T01:45:38.154Z,14.50
2018-04-30T01:50:42.387Z,14.40
2018-04-30T01:55:45.471Z,14.40
2018-04-30T02:00:48.566Z,14.40
2018-04-30T02:05:52.443Z,14.30
2018-04-30T02:10:55.530Z,14.30
2018-04-30T02:21:04.195Z,14.30
2018-04-30T02:31:11.709Z,14.30
2018-04-30T02:36:16.297Z,14.30
2018-04-30T02:41:19.402Z,14.30
2018-04-30T02:46:22.491Z,14.30
2018-04-30T02:51:26.712Z,14.20
2018-04-30T02:56:30.938Z,14.30
2018-04-30T03:01:34.044Z,14.30
2018-04-30T03:06:37.526Z,14.20
2018-04-30T03:11:41.044Z,14.30
2018-04-30T03:16:44.654Z,14.20
2018-04-30T03:21:48.124Z,14.20
2018-04-30T03:26:51.235Z,14.20
2018-04-30T03:31:54.316Z,14.10
2018-04-30T03:36:57.791Z,14.10
2018-04-30T03:42:00.902Z,14.00
2018-04-30T03:47:03.986Z,14.00
2018-04-30T03:52:07.885Z,14.00
2018-04-30T03:57:10.972Z,14.00
2018-04-30T04:02:31.970Z,14.00
2018-04-30T04:07:35.058Z,13.90
2018-04-30T04:12:38.954Z,13.90
2018-04-30T04:17:41.987Z,13.80
2018-04-30T04:22:45.092Z,13.80
2018-04-30T04:32:52.609Z,13.80
2018-04-30T04:37:55.693Z,13.80
2018-04-30T04:42:58.792Z,13.80
2018-04-30T04:48:01.894Z,13.80
2018-04-30T04:53:04.999Z,13.80
2018-04-30T04:58:09.015Z,13.90
2018-04-30T05:08:17.648Z,13.80
2018-04-30T05:13:20.726Z,13.90
2018-04-30T05:23:28.276Z,13.70
2018-04-30T05:28:31.356Z,13.70
2018-04-30T05:33:34.451Z,13.60
2018-04-30T05:38:39.031Z,13.60
2018-04-30T05:43:42.114Z,13.70
2018-04-30T05:53:49.659Z,13.70
2018-04-30T05:58:54.702Z,13.70
2018-04-30T06:03:58.185Z,13.60
2018-04-30T06:09:01.286Z,13.70
2018-04-30T06:14:06.103Z,13.70
2018-04-30T06:19:09.959Z,13.70
2018-04-30T06:24:14.164Z,13.70
2018-04-30T06:29:17.258Z,13.70
2018-04-30T06:39:26.305Z,13.80
2018-04-30T06:44:29.374Z,13.70
2018-04-30T06:49:33.222Z,13.60
2018-04-30T06:54:36.305Z,13.50
2018-04-30T06:59:40.150Z,13.50
2018-04-30T07:04:44.353Z,13.50
2018-04-30T07:09:47.821Z,13.50
2018-04-30T07:14:51.336Z,13.50
2018-04-30T07:19:54.811Z,13.60
2018-04-30T07:24:58.167Z,13.70
2018-04-30T07:30:02.018Z,13.80
2018-04-30T07:35:05.495Z,14.00
2018-04-30T07:40:09.727Z,14.00
2018-04-30T07:45:12.806Z,14.00
2018-04-30T07:50:15.899Z,13.90
2018-04-30T07:55:19.617Z,13.90
2018-04-30T08:00:23.457Z,13.90
2018-04-30T08:05:26.563Z,13.70
2018-04-30T08:10:30.039Z,13.90
2018-04-30T08:15:34.646Z,14.00
2018-04-30T08:20:37.733Z,14.10
2018-04-30T08:25:41.569Z,14.20
2018-04-30T08:30:45.435Z,14.20
2018-04-30T08:35:48.899Z,14.20
2018-04-30T08:40:52.383Z,14.20
2018-04-30T08:45:55.875Z,14.20
2018-04-30T08:50:59.734Z,14.20
2018-04-30T08:56:03.656Z,14.00
2018-04-30T09:01:06.683Z,14.00
2018-04-30T09:06:09.786Z,14.00
2018-04-30T09:11:13.635Z,14.10
2018-04-30T09:16:16.746Z,14.10
2018-04-30T09:21:19.882Z,14.10
2018-04-30T09:26:24.125Z,14.20
2018-04-30T09:31:28.334Z,14.30
2018-04-30T09:36:32.591Z,14.30
2018-04-30T09:41:36.107Z,14.30
2018-04-30T09:46:39.588Z,14.30
2018-04-30T09:51:43.070Z,14.40
2018-04-30T10:01:50.986Z,15.00
2018-04-30T10:06:54.837Z,15.10
2018-04-30T10:11:58.427Z,15.00
2018-04-30T10:17:02.294Z,14.90
2018-04-30T10:22:05.393Z,14.80
2018-04-30T10:27:08.892Z,14.70
2018-04-30T10:37:17.185Z,14.70
2018-04-30T10:47:25.092Z,14.50
2018-04-30T10:52:28.421Z,14.40
2018-04-30T11:02:35.976Z,14.40
2018-04-30T11:07:39.053Z,14.50
2018-04-30T11:12:42.148Z,14.60
2018-04-30T11:17:45.632Z,14.70
2018-04-30T11:22:49.737Z,14.90
2018-04-30T11:38:01.727Z,15.50
2018-04-30T11:43:05.209Z,15.60
2018-04-30T11:48:09.062Z,15.40
2018-04-30T11:58:16.623Z,15.30
2018-04-30T12:03:20.114Z,15.10
2018-04-30T12:08:23.190Z,14.90
2018-04-30T12:13:26.284Z,14.90
2018-04-30T12:18:30.162Z,14.90
2018-04-30T12:23:33.875Z,14.70
2018-04-30T12:33:42.174Z,14.10
2018-04-30T12:38:45.279Z,14.10
2018-04-30T12:43:48.420Z,14.30
2018-04-30T12:53:55.879Z,15.10
2018-04-30T13:04:04.433Z,15.20
2018-04-30T13:09:07.633Z,15.20
2018-04-30T13:14:11.424Z,15.40
2018-04-30T13:24:20.495Z,14.80
2018-04-30T13:29:24.351Z,14.60
2018-04-30T13:34:28.957Z,14.70
2018-04-30T13:39:32.446Z,14.60
2018-04-30T13:44:35.539Z,14.10
2018-04-30T13:49:38.627Z,13.60
2018-04-30T13:54:41.723Z,13.10
2018-04-30T14:09:55.198Z,12.20
2018-04-30T14:20:02.820Z,12.00
2018-04-30T14:30:10.353Z,12.20
2018-04-30T14:35:13.438Z,12.20
2018-04-30T14:40:17.665Z,12.30
2018-04-30T14:45:21.515Z,12.40
2018-04-30T14:50:24.606Z,12.50
2018-04-30T14:55:28.574Z,12.50
2018-04-30T15:00:32.059Z,12.50
2018-04-30T15:05:35.163Z,12.60
2018-04-30T15:15:44.208Z,12.60
2018-04-30T15:20:47.299Z,12.60
2018-04-30T15:30:54.830Z,12.60
2018-04-30T15:41:03.108Z,13.10
2018-04-30T15:46:06.170Z,13.30
2018-04-30T15:51:09.255Z,13.60
2018-04-30T15:56:12.742Z,13.70
2018-04-30T16:01:16.983Z,13.70
2018-04-30T16:06:20.830Z,13.80
2018-04-30T16:11:25.054Z,13.80
2018-04-30T16:16:28.146Z,13.70
2018-04-30T16:26:35.681Z,13.50
2018-04-30T16:31:38.768Z,13.40
2018-04-30T16:36:41.850Z,13.40
2018-04-30T16:46:49.377Z,13.30
2018-04-30T16:51:54.173Z,13.30
2018-04-30T16:56:58.483Z,13.30
2018-04-30T17:02:01.580Z,13.10
2018-04-30T17:12:09.851Z,12.80
2018-04-30T17:17:14.598Z,12.80
2018-04-30T17:22:17.696Z,12.80
2018-04-30T17:32:25.961Z,12.70
2018-04-30T17:37:29.811Z,12.60
2018-04-30T17:42:32.903Z,12.60
2018-04-30T17:52:41.198Z,12.40
2018-04-30T17:57:44.280Z,12.50
2018-04-30T18:02:48.982Z,12.40
2018-04-30T18:07:52.826Z,12.40
2018-04-30T18:12:56.682Z,12.30
2018-04-30T18:18:00.165Z,12.20
2018-04-30T18:23:04.006Z,12.20
2018-04-30T18:28:07.097Z,12.20
2018-04-30T18:33:11.343Z,12.10
2018-04-30T18:38:14.387Z,11.90
2018-04-30T18:43:17.577Z,11.70
2018-04-30T18:53:25.269Z,11.50
2018-04-30T18:58:29.724Z,11.40
2018-04-30T19:03:34.095Z,11.30
2018-04-30T19:08:37.256Z,11.30
2018-04-30T19:13:40.800Z,11.30
2018-04-30T19:18:44.738Z,11.30
2018-04-30T19:23:48.590Z,11.20
2018-04-30T19:28:51.720Z,11.20
2018-04-30T19:33:55.889Z,11.10
2018-04-30T19:44:03.822Z,10.90
2018-04-30T19:49:06.934Z,10.90
2018-04-30T19:54:10.015Z,10.90
2018-04-30T19:59:13.861Z,10.80
2018-04-30T20:04:17.718Z,10.70
2018-04-30T20:14:26.747Z,10.50
2018-04-30T20:19:30.608Z,10.40
2018-04-30T20:24:33.689Z,10.20
2018-04-30T20:29:36.807Z,10.10
2018-04-30T20:34:39.919Z,10.10
2018-04-30T20:39:44.522Z,10.10
2018-04-30T20:44:47.618Z,10.10
2018-04-30T20:49:50.704Z,10.00
2018-04-30T20:54:54.545Z,9.90
2018-04-30T20:59:57.667Z,9.90
2018-04-30T21:05:00.765Z,9.80
2018-04-30T21:10:03.856Z,9.70
2018-04-30T21:15:08.467Z,9.70
2018-04-30T21:20:11.537Z,9.70
2018-04-30T21:25:14.629Z,9.70
2018-04-30T21:30:17.698Z,9.60
2018-04-30T21:35:22.306Z,9.60
2018-04-30T21:40:26.906Z,9.60
2018-04-30T21:45:31.486Z,9.60
2018-04-30T21:50:34.955Z,9.60
2018-04-30T21:55:38.046Z,9.60
2018-04-30T22:00:42.652Z,9.50
2018-04-30T22:05:46.017Z,9.50
2018-04-30T22:15:55.828Z,9.40
2018-04-30T22:20:59.678Z,9.40
2018-04-30T22:26:02.755Z,9.30
2018-04-30T22:31:06.210Z,9.20
2018-04-30T22:36:10.725Z,9.20
2018-04-30T22:41:14.571Z,9.20
2018-04-30T22:51:22.491Z,9.10
2018-04-30T22:56:26.693Z,9.00
2018-04-30T23:01:30.684Z,9.00
2018-04-30T23:06:34.526Z,9.00
2018-04-30T23:11:38.930Z,9.00
2018-04-30T23:16:42.951Z,8.90
2018-04-30T23:21:46.027Z,8.90
2018-04-30T23:26:49.099Z,8.80
2018-04-30T23:31:52.181Z,8.80
2018-04-30T23:47:06.208Z,8.80
2018-04-30T23:52:10.789Z,8.80
2018-04-30T23:57:13.859Z,8.90
